createdAt,value
2017-07-24T00:00:06.885Z,78.6
2017-07-24T00:01:28.398Z,78.1
2017-07-24T00:02:29.758Z,78.1
2017-07-24T00:03:51.294Z,77.2
2017-07-24T00:04:52.654Z,77.4
2017-07-24T00:06:14.172Z,78.2
2017-07-24T00:07:15.533Z,77.4
2017-07-24T00:08:37.065Z,77.6
2017-07-24T00:09:38.426Z,76.8
2017-07-24T00:10:59.943Z,77.8
2017-07-24T00:12:01.306Z,77.8
2017-07-24T00:13:22.839Z,76.7
2017-07-24T00:14:24.201Z,77.5
2017-07-24T00:15:45.718Z,77.1
2017-07-24T00:16:47.078Z,77.4
2017-07-24T00:18:08.615Z,77.4
2017-07-24T00:19:09.975Z,76.6
2017-07-24T00:20:31.491Z,76.2
2017-07-24T00:21:32.857Z,76.8
2017-07-24T00:22:54.365Z,76.8
2017-07-24T00:23:55.727Z,76.8
2017-07-24T00:25:17.755Z,76.5
2017-07-24T00:26:19.115Z,76.5
2017-07-24T00:27:40.626Z,76.9
2017-07-24T00:28:41.987Z,76.7
2017-07-24T00:30:03.522Z,76.4
2017-07-24T00:31:04.884Z,76.3
2017-07-24T00:32:26.403Z,76.2
2017-07-24T00:33:27.764Z,76.5
2017-07-24T00:34:49.292Z,76.7
2017-07-24T00:35:50.654Z,76.1
2017-07-24T00:37:12.167Z,76.2
2017-07-24T00:38:13.766Z,75.9
2017-07-24T00:39:35.310Z,76.0
2017-07-24T00:40:36.667Z,76.1
2017-07-24T00:41:58.184Z,76.3
2017-07-24T00:42:59.574Z,76.6
2017-07-24T00:44:21.108Z,76.9
2017-07-24T00:45:22.468Z,76.5
2017-07-24T00:46:43.987Z,76.8
2017-07-24T00:47:45.355Z,77.1
2017-07-24T00:49:06.879Z,77.2
2017-07-24T00:50:08.241Z,77.4
2017-07-24T00:51:29.761Z,77.7
2017-07-24T00:52:31.121Z,77.4
2017-07-24T00:53:52.657Z,77.2
2017-07-24T00:54:54.056Z,77.2
2017-07-24T00:56:15.569Z,77.3
2017-07-24T00:57:16.934Z,77.5
2017-07-24T00:58:38.627Z,76.8
2017-07-24T00:59:40.153Z,77.2
2017-07-24T01:01:01.674Z,77.2
2017-07-24T01:02:03.037Z,76.8
2017-07-24T01:03:24.571Z,77.2
2017-07-24T01:04:25.930Z,77.2
2017-07-24T01:05:47.445Z,77.1
2017-07-24T01:06:48.805Z,77.2
2017-07-24T01:08:10.319Z,77.2
2017-07-24T01:09:11.681Z,77.2
2017-07-24T01:10:33.216Z,77.1
2017-07-24T01:11:34.576Z,77.2
2017-07-24T01:12:56.092Z,77.1
2017-07-24T01:13:57.455Z,77.2
2017-07-24T01:15:18.986Z,77.4
2017-07-24T01:16:20.348Z,77.3
2017-07-24T01:17:41.865Z,77.6
2017-07-24T01:18:43.225Z,77.5
2017-07-24T01:20:04.756Z,77.5
2017-07-24T01:21:06.118Z,77.5
2017-07-24T01:22:27.635Z,77.4
2017-07-24T01:23:28.995Z,78.1
2017-07-24T01:24:50.531Z,78.1
2017-07-24T01:25:51.889Z,78.0
2017-07-24T01:27:13.405Z,78.2
2017-07-24T01:28:14.768Z,78.1
2017-07-24T01:29:36.301Z,77.3
2017-07-24T01:30:37.664Z,77.3
2017-07-24T01:31:59.177Z,77.7
2017-07-24T01:33:00.539Z,77.9
2017-07-24T01:34:22.071Z,78.1
2017-07-24T01:35:23.430Z,77.1
2017-07-24T01:36:44.944Z,77.3
2017-07-24T01:37:46.305Z,77.1
2017-07-24T01:39:07.839Z,77.2
2017-07-24T01:40:09.197Z,77.2
2017-07-24T01:41:30.712Z,77.4
2017-07-24T01:42:32.074Z,77.4
2017-07-24T01:43:53.604Z,77.5
2017-07-24T01:44:54.967Z,77.8
2017-07-24T01:46:16.479Z,77.5
2017-07-24T01:47:17.840Z,76.9
2017-07-24T01:48:39.396Z,77.2
2017-07-24T01:49:40.782Z,77.0
2017-07-24T01:51:02.271Z,77.5
2017-07-24T01:52:03.631Z,77.4
2017-07-24T01:53:25.152Z,77.4
2017-07-24T01:54:26.633Z,77.4
2017-07-24T01:55:48.270Z,77.2
2017-07-24T01:56:49.693Z,77.4
2017-07-24T01:58:11.215Z,77.0
2017-07-24T01:59:12.577Z,77.2
2017-07-24T02:00:34.110Z,77.2
2017-07-24T02:01:35.470Z,76.7
2017-07-24T02:02:56.988Z,77.0
2017-07-24T02:03:58.350Z,76.6
2017-07-24T02:05:19.882Z,76.5
2017-07-24T02:06:21.240Z,77.2
2017-07-24T02:07:42.767Z,77.6
2017-07-24T02:08:44.126Z,77.9
2017-07-24T02:10:05.656Z,77.4
2017-07-24T02:11:07.015Z,77.5
2017-07-24T02:12:28.533Z,78.0
2017-07-24T02:13:29.894Z,77.9
2017-07-24T02:14:51.427Z,78.3
2017-07-24T02:15:52.793Z,77.7
2017-07-24T02:17:14.305Z,78.4
2017-07-24T02:18:15.668Z,77.8
2017-07-24T02:19:37.204Z,77.9
2017-07-24T02:20:38.563Z,77.9
2017-07-24T02:22:00.086Z,77.5
2017-07-24T02:23:01.447Z,78.4
2017-07-24T02:24:22.979Z,77.9
2017-07-24T02:25:24.339Z,78.1
2017-07-24T02:26:45.856Z,77.2
2017-07-24T02:27:47.218Z,77.7
2017-07-24T02:29:08.750Z,77.5
2017-07-24T02:30:10.112Z,77.0
2017-07-24T02:31:31.627Z,76.9
2017-07-24T02:32:32.989Z,77.3
2017-07-24T02:33:54.500Z,77.5
2017-07-24T02:34:55.862Z,77.1
2017-07-24T02:36:17.392Z,77.4
2017-07-24T02:37:18.752Z,77.9
2017-07-24T02:38:40.267Z,77.2
2017-07-24T02:39:41.834Z,77.2
2017-07-24T02:41:03.378Z,77.3
2017-07-24T02:42:04.739Z,77.0
2017-07-24T02:43:26.258Z,77.2
2017-07-24T02:44:27.910Z,77.1
2017-07-24T02:45:49.422Z,77.2
2017-07-24T02:46:50.781Z,77.3
2017-07-24T02:48:12.297Z,76.9
2017-07-24T02:49:13.665Z,76.9
2017-07-24T02:50:35.194Z,76.6
2017-07-24T02:51:36.554Z,77.2
2017-07-24T02:52:58.071Z,77.0
2017-07-24T02:53:59.432Z,76.4
2017-07-24T02:55:20.964Z,76.7
2017-07-24T02:56:22.326Z,76.7
2017-07-24T02:57:43.843Z,76.6
2017-07-24T02:58:45.205Z,76.8
2017-07-24T03:00:06.739Z,76.5
2017-07-24T03:01:08.219Z,77.1
2017-07-24T03:02:30.732Z,76.6
2017-07-24T03:03:32.092Z,76.3
2017-07-24T03:04:53.624Z,76.6
2017-07-24T03:05:54.985Z,76.9
2017-07-24T03:07:16.498Z,76.3
2017-07-24T03:08:17.858Z,76.9
2017-07-24T03:09:39.394Z,76.3
2017-07-24T03:10:40.754Z,76.2
2017-07-24T03:12:02.277Z,76.5
2017-07-24T03:13:03.635Z,76.5
2017-07-24T03:14:25.166Z,76.5
2017-07-24T03:15:26.527Z,75.8
2017-07-24T03:16:48.043Z,76.0
2017-07-24T03:17:49.405Z,76.2
2017-07-24T03:19:10.919Z,76.1
2017-07-24T03:20:12.280Z,75.9
2017-07-24T03:21:33.813Z,75.9
2017-07-24T03:22:35.175Z,75.9
2017-07-24T03:23:56.885Z,76.1
2017-07-24T03:24:58.244Z,75.9
2017-07-24T03:26:19.783Z,75.9
2017-07-24T03:27:21.144Z,76.6
2017-07-24T03:28:42.662Z,76.0
2017-07-24T03:29:44.026Z,76.4
2017-07-24T03:31:05.563Z,76.8
2017-07-24T03:32:06.921Z,76.4
2017-07-24T03:33:28.441Z,76.4
2017-07-24T03:34:29.802Z,76.6
2017-07-24T03:35:51.340Z,76.3
2017-07-24T03:36:52.702Z,75.9
2017-07-24T03:38:14.224Z,76.5
2017-07-24T03:39:15.589Z,76.6
2017-07-24T03:40:37.121Z,76.5
2017-07-24T03:41:38.483Z,76.4
2017-07-24T03:42:59.998Z,76.5
2017-07-24T03:44:01.384Z,76.4
2017-07-24T03:45:22.953Z,75.8
2017-07-24T03:46:24.314Z,76.4
2017-07-24T03:47:45.829Z,77.0
2017-07-24T03:48:47.191Z,77.0
2017-07-24T03:50:08.725Z,76.6
2017-07-24T03:51:10.088Z,76.6
2017-07-24T03:52:31.607Z,76.2
2017-07-24T03:53:32.971Z,76.2
2017-07-24T03:54:54.504Z,77.0
2017-07-24T03:55:55.867Z,76.6
2017-07-24T03:57:17.386Z,76.8
2017-07-24T03:58:18.749Z,76.7
2017-07-24T03:59:40.286Z,76.8
2017-07-24T04:00:41.648Z,77.0
2017-07-24T04:02:03.166Z,77.3
2017-07-24T04:03:04.531Z,77.4
2017-07-24T04:04:26.051Z,77.3
2017-07-24T04:05:27.415Z,77.3
2017-07-24T04:06:48.957Z,77.2
2017-07-24T04:07:50.315Z,77.0
2017-07-24T04:09:11.834Z,77.2
2017-07-24T04:10:13.205Z,77.6
2017-07-24T04:11:34.740Z,77.4
2017-07-24T04:12:36.105Z,77.5
2017-07-24T04:13:57.628Z,77.4
2017-07-24T04:14:58.991Z,77.4
2017-07-24T04:16:20.526Z,77.7
2017-07-24T04:17:21.892Z,77.2
2017-07-24T04:18:43.413Z,76.8
2017-07-24T04:19:44.778Z,76.5
2017-07-24T04:21:06.316Z,77.1
2017-07-24T04:22:07.681Z,76.7
2017-07-24T04:23:29.199Z,77.2
2017-07-24T04:24:30.565Z,77.5
2017-07-24T04:25:52.103Z,77.2
2017-07-24T04:26:53.467Z,77.4
2017-07-24T04:28:14.985Z,77.3
2017-07-24T04:29:16.351Z,77.4
2017-07-24T04:30:37.888Z,77.7
2017-07-24T04:31:39.249Z,77.3
2017-07-24T04:33:00.771Z,77.4
2017-07-24T04:34:02.136Z,77.7
2017-07-24T04:35:23.669Z,77.4
2017-07-24T04:36:25.034Z,77.6
2017-07-24T04:37:46.558Z,77.4
2017-07-24T04:38:47.920Z,77.4
2017-07-24T04:40:09.459Z,77.3
2017-07-24T04:41:10.822Z,77.7
2017-07-24T04:42:32.346Z,77.9
2017-07-24T04:43:33.705Z,77.6
2017-07-24T04:44:55.238Z,77.5
2017-07-24T04:45:56.602Z,77.3
2017-07-24T04:47:18.123Z,77.4
2017-07-24T04:48:19.487Z,77.6
2017-07-24T04:49:41.007Z,77.3
2017-07-24T04:50:42.371Z,77.7
2017-07-24T04:52:03.906Z,77.7
2017-07-24T04:53:05.271Z,77.3
2017-07-24T04:54:26.791Z,77.4
2017-07-24T04:55:28.156Z,77.4
2017-07-24T04:56:49.692Z,77.4
2017-07-24T04:57:51.054Z,77.5
2017-07-24T04:59:12.574Z,78.1
2017-07-24T05:00:13.940Z,78.0
2017-07-24T05:01:35.477Z,77.7
2017-07-24T05:02:36.840Z,77.6
2017-07-24T05:03:58.362Z,77.3
2017-07-24T05:04:59.727Z,78.0
2017-07-24T05:06:21.267Z,77.6
2017-07-24T05:07:22.632Z,77.7
2017-07-24T05:08:44.155Z,77.8
2017-07-24T05:09:45.524Z,77.8
2017-07-24T05:11:07.057Z,77.9
2017-07-24T05:12:08.422Z,77.9
2017-07-24T05:13:29.942Z,79.1
2017-07-24T05:14:31.308Z,77.6
2017-07-24T05:15:52.852Z,77.4
2017-07-24T05:16:54.217Z,77.6
2017-07-24T05:18:15.735Z,78.2
2017-07-24T05:19:17.101Z,78.0
2017-07-24T05:20:38.639Z,77.7
2017-07-24T05:21:40.005Z,77.5
2017-07-24T05:23:01.526Z,77.4
2017-07-24T05:24:02.892Z,77.5
2017-07-24T05:25:24.432Z,77.5
2017-07-24T05:26:25.795Z,77.8
2017-07-24T05:27:47.318Z,77.4
2017-07-24T05:28:48.684Z,77.9
2017-07-24T05:30:10.204Z,77.7
2017-07-24T05:31:11.569Z,77.5
2017-07-24T05:32:33.108Z,77.2
2017-07-24T05:33:34.475Z,77.4
2017-07-24T05:34:55.999Z,77.7
2017-07-24T05:35:57.365Z,77.4
2017-07-24T05:37:18.903Z,77.6
2017-07-24T05:38:20.273Z,77.5
2017-07-24T05:39:41.797Z,78.0
2017-07-24T05:40:43.164Z,77.8
2017-07-24T05:42:04.718Z,77.5
2017-07-24T05:43:06.086Z,77.3
2017-07-24T05:44:27.606Z,77.6
2017-07-24T05:45:28.975Z,77.5
2017-07-24T05:46:50.512Z,77.5
2017-07-24T05:47:51.878Z,77.6
2017-07-24T05:49:13.403Z,77.5
2017-07-24T05:50:14.768Z,76.8
2017-07-24T05:51:36.310Z,77.3
2017-07-24T05:52:37.679Z,76.9
2017-07-24T05:53:59.202Z,77.2
2017-07-24T05:55:00.571Z,76.7
2017-07-24T05:56:22.108Z,77.3
2017-07-24T05:57:23.474Z,77.1
2017-07-24T05:58:44.996Z,77.6
2017-07-24T05:59:46.362Z,77.1
2017-07-24T06:01:07.903Z,76.8
2017-07-24T06:02:09.269Z,77.6
2017-07-24T06:03:30.789Z,77.8
2017-07-24T06:04:32.156Z,77.9
2017-07-24T06:05:53.692Z,76.9
2017-07-24T06:06:55.059Z,77.6
2017-07-24T06:08:16.582Z,77.2
2017-07-24T06:09:17.947Z,77.4
2017-07-24T06:10:39.486Z,77.3
2017-07-24T06:11:40.853Z,77.5
2017-07-24T06:13:02.372Z,77.2
2017-07-24T06:14:03.739Z,77.6
2017-07-24T06:15:25.260Z,77.6
2017-07-24T06:16:26.627Z,77.7
2017-07-24T06:17:48.166Z,77.3
2017-07-24T06:18:49.530Z,77.6
2017-07-24T06:20:11.050Z,77.6
2017-07-24T06:21:12.415Z,77.7
2017-07-24T06:22:33.956Z,77.9
2017-07-24T06:23:35.324Z,78.0
2017-07-24T06:24:56.848Z,77.7
2017-07-24T06:25:58.208Z,77.8
2017-07-24T06:27:19.748Z,77.2
2017-07-24T06:28:21.114Z,77.6
2017-07-24T06:29:42.631Z,77.7
2017-07-24T06:30:43.998Z,77.4
2017-07-24T06:32:05.534Z,77.3
2017-07-24T06:33:06.900Z,78.4
2017-07-24T06:34:28.423Z,77.8
2017-07-24T06:35:29.790Z,78.0
2017-07-24T06:36:51.333Z,77.6
2017-07-24T06:37:52.699Z,77.7
2017-07-24T06:39:14.224Z,78.2
2017-07-24T06:40:15.592Z,77.9
2017-07-24T06:41:37.132Z,77.9
2017-07-24T06:42:38.552Z,77.7
2017-07-24T06:44:00.021Z,78.2
2017-07-24T06:45:01.385Z,77.9
2017-07-24T06:46:22.924Z,78.2
2017-07-24T06:47:24.289Z,78.3
2017-07-24T06:48:45.807Z,78.1
2017-07-24T06:49:47.174Z,77.5
2017-07-24T06:51:08.718Z,78.1
2017-07-24T06:52:10.081Z,78.0
2017-07-24T06:53:31.602Z,78.0
2017-07-24T06:54:32.970Z,78.5
2017-07-24T06:55:54.509Z,77.8
2017-07-24T06:56:55.876Z,79.0
2017-07-24T06:58:17.401Z,78.7
2017-07-24T06:59:18.772Z,78.8
2017-07-24T07:00:40.296Z,78.0
2017-07-24T07:01:41.663Z,78.0
2017-07-24T07:03:03.203Z,78.8
2017-07-24T07:04:04.572Z,78.8
2017-07-24T07:05:26.090Z,78.8
2017-07-24T07:06:27.458Z,78.0
2017-07-24T07:07:48.998Z,77.6
2017-07-24T07:08:50.364Z,77.9
2017-07-24T07:10:11.894Z,78.2
2017-07-24T07:11:13.252Z,78.5
2017-07-24T07:12:34.791Z,77.3
2017-07-24T07:13:36.156Z,78.3
2017-07-24T07:14:57.691Z,78.0
2017-07-24T07:15:59.064Z,79.1
2017-07-24T07:17:20.601Z,79.3
2017-07-24T07:18:21.967Z,78.0
2017-07-24T07:19:43.487Z,78.5
2017-07-24T07:20:44.856Z,78.6
2017-07-24T07:22:06.396Z,79.2
2017-07-24T07:23:07.761Z,79.8
2017-07-24T07:24:29.282Z,79.4
2017-07-24T07:25:30.649Z,79.7
2017-07-24T07:26:52.189Z,79.3
2017-07-24T07:27:53.557Z,79.7
2017-07-24T07:29:15.079Z,79.4
2017-07-24T07:30:16.446Z,79.4
2017-07-24T07:31:37.989Z,78.7
2017-07-24T07:32:39.354Z,78.3
2017-07-24T07:34:00.876Z,77.4
2017-07-24T07:35:02.244Z,77.8
2017-07-24T07:36:23.787Z,77.6
2017-07-24T07:37:25.155Z,77.9
2017-07-24T07:38:46.682Z,78.0
2017-07-24T07:39:48.049Z,78.0
2017-07-24T07:41:09.591Z,77.5
2017-07-24T07:42:10.958Z,78.1
2017-07-24T07:43:32.480Z,78.3
2017-07-24T07:44:33.847Z,78.0
2017-07-24T07:45:55.374Z,78.4
2017-07-24T07:46:56.737Z,77.8
2017-07-24T07:48:18.278Z,77.9
2017-07-24T07:49:19.645Z,77.6
2017-07-24T07:50:41.167Z,77.8
2017-07-24T07:51:42.535Z,77.9
2017-07-24T07:53:04.081Z,77.9
2017-07-24T07:54:05.446Z,77.7
2017-07-24T07:55:26.966Z,77.4
2017-07-24T07:56:28.333Z,77.8
2017-07-24T07:57:49.873Z,78.0
2017-07-24T07:58:51.243Z,77.9
2017-07-24T08:00:12.766Z,77.7
2017-07-24T08:01:14.134Z,77.4
2017-07-24T08:02:35.681Z,77.6
2017-07-24T08:03:37.047Z,78.6
2017-07-24T08:04:58.572Z,77.6
2017-07-24T08:05:59.939Z,77.8
2017-07-24T08:07:21.480Z,78.3
2017-07-24T08:08:22.848Z,78.3
2017-07-24T08:09:44.375Z,77.4
2017-07-24T08:10:45.739Z,77.7
2017-07-24T08:12:07.286Z,77.6
2017-07-24T08:13:08.655Z,77.8
2017-07-24T08:14:30.176Z,78.0
2017-07-24T08:15:31.545Z,77.5
2017-07-24T08:16:53.084Z,77.2
2017-07-24T08:17:54.450Z,78.4
2017-07-24T08:19:15.974Z,77.7
2017-07-24T08:20:17.341Z,77.3
2017-07-24T08:21:38.884Z,77.7
2017-07-24T08:22:40.252Z,77.2
2017-07-24T08:24:01.771Z,77.3
2017-07-24T08:25:03.138Z,77.5
2017-07-24T08:26:24.657Z,77.7
2017-07-24T08:27:26.026Z,77.4
2017-07-24T08:28:47.566Z,77.4
2017-07-24T08:29:48.933Z,77.5
2017-07-24T08:31:10.458Z,77.5
2017-07-24T08:32:11.824Z,77.6
2017-07-24T08:33:33.365Z,77.5
2017-07-24T08:34:34.731Z,77.7
2017-07-24T08:35:56.254Z,77.3
2017-07-24T08:36:57.621Z,77.2
2017-07-24T08:38:19.162Z,77.5
2017-07-24T08:39:20.529Z,77.3
2017-07-24T08:40:42.053Z,77.6
2017-07-24T08:41:43.418Z,78.5
2017-07-24T08:43:04.960Z,77.1
2017-07-24T08:44:06.328Z,77.5
2017-07-24T08:45:27.849Z,77.6
2017-07-24T08:46:29.219Z,77.2
2017-07-24T08:47:50.758Z,77.5
2017-07-24T08:48:52.123Z,77.2
2017-07-24T08:50:13.646Z,77.4
2017-07-24T08:51:15.010Z,76.6
2017-07-24T08:52:36.551Z,76.9
2017-07-24T08:53:37.914Z,77.4
2017-07-24T08:54:59.437Z,76.5
2017-07-24T08:56:00.804Z,77.5
2017-07-24T08:57:22.340Z,77.6
2017-07-24T08:58:23.704Z,77.8
2017-07-24T08:59:45.228Z,78.3
2017-07-24T09:00:46.591Z,78.5
2017-07-24T09:02:08.133Z,79.0
2017-07-24T09:03:09.499Z,78.8
2017-07-24T09:04:31.018Z,79.5
2017-07-24T09:05:32.384Z,79.9
2017-07-24T09:06:53.925Z,79.4
2017-07-24T09:07:55.290Z,79.4
2017-07-24T09:09:16.811Z,79.8
2017-07-24T09:10:18.179Z,79.8
2017-07-24T09:11:39.700Z,79.9
2017-07-24T09:12:41.067Z,79.3
2017-07-24T09:14:02.604Z,79.2
2017-07-24T09:15:03.972Z,79.4
2017-07-24T09:16:25.497Z,79.5
2017-07-24T09:17:26.866Z,79.4
2017-07-24T09:18:48.403Z,79.3
2017-07-24T09:19:49.769Z,79.7
2017-07-24T09:21:11.293Z,79.6
2017-07-24T09:22:12.659Z,80.5
2017-07-24T09:23:34.200Z,80.3
2017-07-24T09:24:35.567Z,80.3
2017-07-24T09:25:57.090Z,80.3
2017-07-24T09:26:58.456Z,79.4
2017-07-24T09:28:19.993Z,79.8
2017-07-24T09:29:22.063Z,80.0
2017-07-24T09:30:43.588Z,79.9
2017-07-24T09:31:44.955Z,78.8
2017-07-24T09:33:06.496Z,78.0
2017-07-24T09:34:07.861Z,78.9
2017-07-24T09:35:29.386Z,78.8
2017-07-24T09:36:30.751Z,78.2
2017-07-24T09:37:52.290Z,78.6
2017-07-24T09:38:53.674Z,79.2
2017-07-24T09:40:15.199Z,79.5
2017-07-24T09:41:16.565Z,78.6
2017-07-24T09:42:38.150Z,78.4
2017-07-24T09:43:39.516Z,78.6
2017-07-24T09:45:01.040Z,77.5
2017-07-24T09:46:02.406Z,77.3
2017-07-24T09:47:23.947Z,77.0
2017-07-24T09:48:25.313Z,76.6
2017-07-24T09:49:47.792Z,75.8
2017-07-24T09:50:49.038Z,77.1
2017-07-24T09:52:10.717Z,77.0
2017-07-24T09:53:12.003Z,76.7
2017-07-24T09:54:33.527Z,77.2
2017-07-24T09:55:34.896Z,76.6
2017-07-24T09:56:56.439Z,76.7
2017-07-24T09:57:57.806Z,76.5
2017-07-24T09:59:19.348Z,75.7
2017-07-24T10:00:20.716Z,76.3
2017-07-24T10:01:42.244Z,75.6
2017-07-24T10:02:43.608Z,75.4
2017-07-24T10:04:05.153Z,75.0
2017-07-24T10:05:06.518Z,76.1
2017-07-24T10:06:28.041Z,74.1
2017-07-24T10:07:29.408Z,75.4
2017-07-24T10:08:50.954Z,72.7
2017-07-24T10:09:52.320Z,73.7
2017-07-24T10:11:14.288Z,75.2
2017-07-24T10:12:15.656Z,75.4
2017-07-24T10:13:37.200Z,76.5
2017-07-24T10:14:38.567Z,76.1
2017-07-24T10:16:00.089Z,75.5
2017-07-24T10:17:01.458Z,74.9
2017-07-24T10:18:23.002Z,72.5
2017-07-24T10:19:24.370Z,74.2
2017-07-24T10:20:45.894Z,75.5
2017-07-24T10:21:47.327Z,74.8
2017-07-24T10:23:08.875Z,74.7
2017-07-24T10:24:10.243Z,73.9
2017-07-24T10:25:31.771Z,73.8
2017-07-24T10:26:33.137Z,74.4
2017-07-24T10:27:54.681Z,74.6
2017-07-24T10:28:56.048Z,74.5
2017-07-24T10:30:17.579Z,74.6
2017-07-24T10:31:18.960Z,74.4
2017-07-24T10:32:40.722Z,71.9
2017-07-24T15:16:52.642Z,72.5
2017-07-24T15:17:54.007Z,72.3
2017-07-24T15:19:15.551Z,72.4
2017-07-24T15:20:16.993Z,72.6
2017-07-24T15:21:38.520Z,72.8
2017-07-24T15:22:39.886Z,72.8
2017-07-24T15:24:01.409Z,72.5
2017-07-24T15:25:02.774Z,72.6
2017-07-24T15:26:24.315Z,72.3
2017-07-24T15:27:25.715Z,72.3
2017-07-24T15:28:47.234Z,73.2
2017-07-24T15:29:48.951Z,72.4
2017-07-24T15:31:10.505Z,72.4
2017-07-24T15:32:11.906Z,72.3
2017-07-24T15:33:33.434Z,72.2
2017-07-24T15:34:34.802Z,71.7
2017-07-24T15:35:56.345Z,72.2
2017-07-24T15:36:57.712Z,72.2
2017-07-24T15:38:19.239Z,73.4
2017-07-24T15:39:20.604Z,73.4
2017-07-24T15:40:42.145Z,72.2
2017-07-24T15:41:43.514Z,71.9
2017-07-24T15:43:05.038Z,72.1
2017-07-24T15:44:06.406Z,72.7
2017-07-24T15:45:27.946Z,74.6
2017-07-24T15:46:29.315Z,73.8
2017-07-24T15:47:50.838Z,74.4
2017-07-24T15:48:52.205Z,74.5
2017-07-24T15:50:13.742Z,74.4
2017-07-24T15:51:15.109Z,74.2
2017-07-24T15:52:36.741Z,74.5
2017-07-24T15:53:38.111Z,73.2
2017-07-24T15:54:59.655Z,72.7
2017-07-24T15:56:01.025Z,73.3
2017-07-24T15:57:22.550Z,73.6
2017-07-24T15:58:23.918Z,74.5
2017-07-24T15:59:45.457Z,74.6
2017-07-24T16:00:46.829Z,74.7
2017-07-24T16:02:08.352Z,74.4
2017-07-24T16:03:09.780Z,72.5
2017-07-24T16:04:31.364Z,72.2
2017-07-24T16:05:32.737Z,71.8
2017-07-24T16:06:54.342Z,71.5
2017-07-24T16:07:55.761Z,71.3
2017-07-24T16:09:17.399Z,70.9
2017-07-24T16:10:18.782Z,71.1
2017-07-24T16:11:40.330Z,70.8
2017-07-24T16:12:41.775Z,70.8
2017-07-24T16:14:03.390Z,71.7
2017-07-24T16:15:04.755Z,72.4
2017-07-24T16:16:26.304Z,72.5
2017-07-24T16:17:27.702Z,71.7
2017-07-24T16:18:49.266Z,71.8
2017-07-24T16:19:50.633Z,71.6
2017-07-24T16:21:12.430Z,71.3
2017-07-24T16:22:13.922Z,70.3
2017-07-24T16:23:35.474Z,69.9
2017-07-24T16:24:36.842Z,70.0
2017-07-24T16:25:58.385Z,71.4
2017-07-24T16:26:59.792Z,71.3
2017-07-24T16:28:21.330Z,71.3
2017-07-24T16:29:22.705Z,71.1
2017-07-24T16:30:44.247Z,71.0
2017-07-24T16:31:45.721Z,71.3
2017-07-24T16:33:07.319Z,71.3
2017-07-24T16:34:08.716Z,69.4
2017-07-24T16:35:30.259Z,69.7
2017-07-24T16:36:31.629Z,70.3
2017-07-24T16:37:53.234Z,72.0
2017-07-24T16:38:54.740Z,72.0
2017-07-24T16:40:16.695Z,71.7
2017-07-24T16:41:18.152Z,71.1
2017-07-24T16:42:39.717Z,72.7
2017-07-24T16:43:41.082Z,72.6
2017-07-24T16:45:02.875Z,72.1
2017-07-24T16:46:04.250Z,72.4
2017-07-24T16:47:25.832Z,73.4
2017-07-24T16:48:27.241Z,71.6
2017-07-24T16:49:48.801Z,72.4
2017-07-24T16:50:50.214Z,72.5
2017-07-24T16:52:11.752Z,72.6
2017-07-24T16:53:13.122Z,73.2
2017-07-24T16:54:34.645Z,73.6
2017-07-24T16:55:36.014Z,74.1
2017-07-24T16:56:57.556Z,72.5
2017-07-24T16:57:58.923Z,73.3
2017-07-24T16:59:20.447Z,73.5
2017-07-24T17:00:21.815Z,73.1
2017-07-24T17:01:43.358Z,74.1
2017-07-24T17:02:44.725Z,73.5
2017-07-24T17:04:06.247Z,73.8
2017-07-24T17:05:07.615Z,74.0
2017-07-24T17:06:29.160Z,74.6
2017-07-24T17:07:30.526Z,74.1
2017-07-24T17:08:52.049Z,73.9
2017-07-24T17:09:53.418Z,74.6
2017-07-24T17:11:14.967Z,75.7
2017-07-24T17:12:16.332Z,75.1
2017-07-24T17:13:37.854Z,75.6
2017-07-24T17:14:39.221Z,76.6
2017-07-24T17:16:00.765Z,76.4
2017-07-24T17:17:02.151Z,76.7
2017-07-24T17:18:23.654Z,76.9
2017-07-24T17:19:25.022Z,77.3
2017-07-24T17:20:46.567Z,78.0
2017-07-24T17:21:47.935Z,78.1
2017-07-24T17:23:09.457Z,77.9
2017-07-24T17:24:10.824Z,77.9
2017-07-24T17:25:32.367Z,77.7
2017-07-24T17:26:33.734Z,77.5
2017-07-24T17:27:55.254Z,78.0
2017-07-24T17:28:56.620Z,77.4
2017-07-24T17:30:18.156Z,76.3
2017-07-24T17:31:19.526Z,76.3
2017-07-24T17:32:41.051Z,76.8
2017-07-24T17:33:42.419Z,76.9
2017-07-24T17:35:03.955Z,76.3
2017-07-24T17:36:05.387Z,76.4
2017-07-24T17:37:26.936Z,76.8
2017-07-24T17:38:28.355Z,77.1
2017-07-24T17:39:49.883Z,77.7
2017-07-24T17:40:51.250Z,77.6
2017-07-24T17:42:12.792Z,77.7
2017-07-24T17:43:14.159Z,76.9
2017-07-24T17:44:35.680Z,77.3
2017-07-24T17:45:37.048Z,77.1
2017-07-24T17:46:58.588Z,76.5
2017-07-24T17:47:59.954Z,76.7
2017-07-24T17:49:21.476Z,76.4
2017-07-24T17:50:22.842Z,76.1
2017-07-24T17:51:44.380Z,76.7
2017-07-24T17:52:45.745Z,76.3
2017-07-24T17:54:07.267Z,77.1
2017-07-24T17:55:08.634Z,76.8
2017-07-24T17:56:30.171Z,77.6
2017-07-24T17:57:31.550Z,77.3
2017-07-24T17:58:53.071Z,77.6
2017-07-24T17:59:54.436Z,77.1
2017-07-24T18:01:15.973Z,77.3
2017-07-24T18:02:17.340Z,76.5
2017-07-24T18:03:38.860Z,76.7
2017-07-24T18:04:40.230Z,76.4
2017-07-24T18:06:01.768Z,76.3
2017-07-24T18:07:03.136Z,76.7
2017-07-24T18:08:24.668Z,77.5
2017-07-24T18:09:26.034Z,77.0
2017-07-24T18:10:47.577Z,76.3
2017-07-24T18:11:48.943Z,76.5
2017-07-24T18:13:10.460Z,76.3
2017-07-24T18:14:11.828Z,76.6
2017-07-24T18:15:33.365Z,76.2
2017-07-24T18:16:34.732Z,77.0
2017-07-24T18:17:56.252Z,77.8
2017-07-24T18:18:57.623Z,77.4
2017-07-24T18:20:19.139Z,77.7
2017-07-24T18:21:20.504Z,77.4
2017-07-24T18:22:42.175Z,77.9
2017-07-24T18:23:43.540Z,78.1
2017-07-24T18:25:05.324Z,77.6
2017-07-24T18:26:06.688Z,77.7
2017-07-24T18:27:28.229Z,77.3
2017-07-24T18:28:29.589Z,77.3
2017-07-24T18:29:51.110Z,77.3
2017-07-24T18:30:52.474Z,77.3
2017-07-24T18:32:14.012Z,77.1
2017-07-24T18:33:15.376Z,76.7
2017-07-24T18:34:36.900Z,77.1
2017-07-24T18:35:38.267Z,77.4
2017-07-24T18:36:59.802Z,77.5
2017-07-24T18:38:01.167Z,76.8
2017-07-24T18:39:22.689Z,76.7
2017-07-24T18:40:24.056Z,76.3
2017-07-24T18:41:45.701Z,76.4
2017-07-24T18:42:47.066Z,77.0
2017-07-24T18:44:08.585Z,77.3
2017-07-24T18:45:09.950Z,76.6
2017-07-24T18:46:31.485Z,76.5
2017-07-24T18:47:32.856Z,76.6
2017-07-24T18:48:54.379Z,76.0
2017-07-24T18:49:55.744Z,76.2
2017-07-24T18:51:17.279Z,75.6
2017-07-24T18:52:18.646Z,75.8
2017-07-24T18:53:40.164Z,76.4
2017-07-24T18:54:41.528Z,75.7
2017-07-24T18:56:03.062Z,76.1
2017-07-24T18:57:04.429Z,76.5
2017-07-24T18:58:25.958Z,76.3
2017-07-24T18:59:27.315Z,76.9
2017-07-24T19:00:48.835Z,77.5
2017-07-24T19:01:50.197Z,77.5
2017-07-24T19:03:11.733Z,77.6
2017-07-24T19:04:13.100Z,77.6
2017-07-24T19:05:34.623Z,77.9
2017-07-24T19:06:35.986Z,78.0
2017-07-24T19:07:57.522Z,77.8
2017-07-24T19:08:58.887Z,78.4
2017-07-24T19:10:20.411Z,78.0
2017-07-24T19:11:21.774Z,78.0
2017-07-24T19:12:43.309Z,78.2
2017-07-24T19:13:44.674Z,78.2
2017-07-24T19:15:06.205Z,78.3
2017-07-24T19:16:07.565Z,78.1
2017-07-24T19:17:29.104Z,78.1
2017-07-24T19:18:30.467Z,78.9
2017-07-24T19:19:51.984Z,78.1
2017-07-24T19:20:53.350Z,78.1
2017-07-24T19:22:14.887Z,79.0
2017-07-24T19:23:16.333Z,78.9
2017-07-24T19:24:37.936Z,79.1
2017-07-24T19:25:39.380Z,79.3
2017-07-24T19:27:00.940Z,79.2
2017-07-24T19:28:02.343Z,79.5
2017-07-24T19:29:23.867Z,79.8
2017-07-24T19:30:25.438Z,80.1
2017-07-24T19:31:46.955Z,79.4
2017-07-24T19:32:48.317Z,79.1
2017-07-24T19:34:09.988Z,79.4
2017-07-24T19:35:11.359Z,79.4
2017-07-24T19:36:32.903Z,79.3
2017-07-24T19:37:34.261Z,78.6
2017-07-24T19:38:55.981Z,78.2
2017-07-24T19:39:57.664Z,78.8
2017-07-24T19:41:19.203Z,78.8
2017-07-24T19:42:20.561Z,78.6
2017-07-24T19:43:42.081Z,78.8
2017-07-24T19:44:43.444Z,78.8
2017-07-24T19:46:04.957Z,78.0
2017-07-24T19:47:06.320Z,78.2
2017-07-24T19:48:27.857Z,78.4
2017-07-24T19:49:29.217Z,78.0
2017-07-24T19:50:50.732Z,78.9
2017-07-24T19:51:52.096Z,79.1
2017-07-24T19:53:13.630Z,79.4
2017-07-24T19:54:14.994Z,79.1
2017-07-24T19:55:36.508Z,79.3
2017-07-24T19:56:37.921Z,79.7
2017-07-24T19:57:59.677Z,79.6
2017-07-24T19:59:01.163Z,80.1
2017-07-24T20:00:22.837Z,80.3
2017-07-24T20:01:24.380Z,80.5
2017-07-24T20:02:46.127Z,81.0
2017-07-24T20:03:47.562Z,81.0
2017-07-24T20:05:09.680Z,80.8
2017-07-24T20:06:11.092Z,80.4
2017-07-24T20:07:32.701Z,80.4
2017-07-24T20:08:34.255Z,80.2
2017-07-24T20:09:55.896Z,79.6
2017-07-24T20:10:57.384Z,79.7
2017-07-24T20:12:18.989Z,80.0
2017-07-24T20:13:20.407Z,80.3
2017-07-24T20:14:41.981Z,79.5
2017-07-24T20:15:43.390Z,80.2
2017-07-24T20:17:04.944Z,79.6
2017-07-24T20:18:06.315Z,80.3
2017-07-24T20:19:27.836Z,80.2
2017-07-24T20:20:29.206Z,80.5
2017-07-24T20:21:50.757Z,80.5
2017-07-24T20:22:52.121Z,80.2
2017-07-24T20:24:13.639Z,80.3
2017-07-24T20:25:15.006Z,80.2
2017-07-24T20:26:36.542Z,80.5
2017-07-24T20:27:37.897Z,80.8
2017-07-24T20:28:59.517Z,80.8
2017-07-24T20:30:00.877Z,81.3
2017-07-24T20:31:22.400Z,81.4
2017-07-24T20:32:23.756Z,81.7
2017-07-24T20:33:45.287Z,81.1